Time;durP1;ratioP1;P1;durP2;ratioP2;P2;SDS_P1;SDS_P2;PMS_P1;PMS_P2;Temp;Humidity;BMP_temperature;BMP_pressure;BME280_temperature;BME280_humidity;BME280_pressure;Samples;Min_cycle;Max_cycle;Signal;HPM_P1;HPM_P2
2021/12/08 00:00:08;;;;;;;315.20;75.30;;;;;;;2.87;96.65;98483.59;345308;28;1907;-72
2021/12/08 00:00:25;;;;;;;316.08;75.85;;;;;;;2.89;97.11;98489.56;345122;28;1050;-72
2021/12/08 00:00:42;;;;;;;315.33;75.53;;;;;;;2.91;96.89;98487.78;346174;28;1285;-72
2021/12/08 00:00:55;;;;;;;314.02;74.15;;;;;;;2.93;96.81;98487.75;343779;28;1107;-72
2021/12/08 00:01:08;;;;;;;315.13;75.43;;;;;;;2.93;97.14;98486.00;343924;28;957;-72
2021/12/08 00:01:20;;;;;;;314.90;75.20;;;;;;;2.93;97.22;98491.16;343856;28;1121;-72
2021/12/08 00:01:30;;;;;;;314.67;75.22;;;;;;;2.90;96.63;98488.69;346753;28;2176;-72
2021/12/08 00:01:41;;;;;;;315.73;76.97;;;;;;;2.92;96.73;98489.47;345291;28;1754;-72
2021/12/08 00:01:51;;;;;;;316.20;77.47;;;;;;;2.93;96.63;98483.41;346418;28;1275;-72
2021/12/08 00:02:02;;;;;;;316.08;77.03;;;;;;;2.89;96.48;98486.97;344933;28;2109;-72
2021/12/08 00:02:13;;;;;;;315.65;75.53;;;;;;;2.90;96.50;98478.34;346410;28;2318;-72
2021/12/08 00:02:25;;;;;;;316.13;76.27;;;;;;;2.89;96.66;98489.56;346364;28;2092;-72
2021/12/08 00:02:35;;;;;;;315.05;75.38;;;;;;;2.90;96.67;98487.81;343180;28;962;-72
2021/12/08 00:02:46;;;;;;;314.40;74.93;;;;;;;2.92;96.46;98486.91;345145;28;1664;-72
2021/12/08 00:03:00;;;;;;;315.27;75.53;;;;;;;2.90;96.63;98487.81;345130;28;1741;-72
2021/12/08 00:03:12;;;;;;;315.60;76.07;;;;;;;2.88;96.65;98489.59;343627;28;2106;-72
2021/12/08 00:03:23;;;;;;;316.67;76.88;;;;;;;2.87;97.06;98493.94;344957;28;1487;-72
2021/12/08 00:03:34;;;;;;;316.80;76.10;;;;;;;2.87;97.14;98486.19;345201;28;954;-72
2021/12/08 00:03:45;;;;;;;316.17;75.73;;;;;;;2.82;96.68;98490.63;345052;28;2263;-72
2021/12/08 00:03:55;;;;;;;315.70;74.50;;;;;;;2.80;97.05;98486.38;345419;28;2096;-72
2021/12/08 00:04:05;;;;;;;317.07;75.67;;;;;;;2.78;96.88;98489.00;346428;28;1152;-72
2021/12/08 00:04:16;;;;;;;318.88;77.55;;;;;;;2.79;97.24;98492.44;345800;28;1268;-72
2021/12/08 00:04:26;;;;;;;318.50;77.80;;;;;;;2.80;97.17;98489.81;345055;28;2163;-72
2021/12/08 00:04:37;;;;;;;317.00;76.93;;;;;;;2.85;97.36;98495.72;343985;28;1529;-72
2021/12/08 00:04:47;;;;;;;317.27;77.53;;;;;;;2.87;97.35;98493.06;345029;28;1858;-72
2021/12/08 00:04:57;;;;;;;317.00;77.68;;;;;;;2.87;97.55;98499.09;344384;28;2088;-72
2021/12/08 00:05:08;;;;;;;316.53;77.43;;;;;;;2.87;97.18;98493.94;344928;28;1972;-72
2021/12/08 00:05:19;;;;;;;316.00;76.47;;;;;;;2.88;97.18;98498.19;345101;28;1227;-73
2021/12/08 00:05:30;;;;;;;317.42;78.30;;;;;;;2.88;96.97;98495.63;345239;28;2861;-72
2021/12/08 00:05:41;;;;;;;317.95;78.30;;;;;;;2.87;97.62;98499.09;343244;28;2009;-72
2021/12/08 00:05:51;;;;;;;317.02;77.38;;;;;;;2.84;96.97;98496.59;343781;28;1429;-72
2021/12/08 00:06:01;;;;;;;316.57;76.83;;;;;;;2.85;97.10;98497.44;343909;28;2209;-72
2021/12/08 00:06:12;;;;;;;315.98;76.65;;;;;;;2.88;97.46;98494.78;343676;28;1188;-72
2021/12/08 00:06:22;;;;;;;316.87;77.10;;;;;;;2.89;97.22;98491.28;345195;28;953;-72
2021/12/08 00:06:33;;;;;;;317.17;77.45;;;;;;;2.95;97.37;98496.28;343608;28;2616;-72
2021/12/08 00:06:43;;;;;;;317.23;77.93;;;;;;;2.95;97.39;98491.97;343592;28;1839;-72
2021/12/08 00:06:53;;;;;;;317.30;77.67;;;;;;;2.94;96.98;98495.44;346474;28;2160;-72
2021/12/08 00:07:05;;;;;;;317.80;79.70;;;;;;;2.95;97.31;98499.72;346500;28;930;-72
2021/12/08 00:07:15;;;;;;;317.33;79.50;;;;;;;2.95;97.36;98491.13;344324;28;2131;-72
2021/12/08 00:07:25;;;;;;;316.05;78.30;;;;;;;2.91;97.01;98494.69;344870;28;2097;-72
2021/12/08 00:07:36;;;;;;;316.47;76.47;;;;;;;2.89;96.90;98494.72;344462;28;853;-72
2021/12/08 00:07:47;;;;;;;316.02;75.72;;;;;;;2.93;97.09;98490.31;344881;28;1858;-72
2021/12/08 00:07:57;;;;;;;316.75;77.15;;;;;;;2.90;96.67;98487.81;344962;28;2319;-72
2021/12/08 00:08:08;;;;;;;316.43;77.90;;;;;;;2.87;96.83;98499.09;343760;28;2076;-72
2021/12/08 00:08:20;;;;;;;316.27;77.90;;;;;;;2.82;96.68;98500.94;345245;28;983;-72
2021/12/08 00:08:33;;;;;;;316.30;77.75;;;;;;;2.81;96.74;98504.44;344822;28;1968;-72
2021/12/08 00:08:49;;;;;;;316.10;77.35;;;;;;;2.82;97.10;98495.78;344398;28;2060;-72
2021/12/08 00:09:17;;;;;;;315.20;76.18;;;;;;;2.83;96.94;98494.06;343953;28;2291;-72
2021/12/08 00:09:36;;;;;;;317.67;78.88;;;;;;;2.85;97.08;98498.28;345709;28;1668;-72
2021/12/08 00:09:49;;;;;;;318.50;77.78;;;;;;;2.87;96.77;98504.25;345187;28;1961;-72
2021/12/08 00:10:12;;;;;;;317.50;76.10;;;;;;;2.90;97.38;98499.00;344775;28;2057;-72
2021/12/08 00:13:01;;;;;;;315.25;75.72;;;;;;;2.92;97.09;98507.56;344277;28;2077;-72
2021/12/08 00:13:06;;;;;;;316.20;76.88;;;;;;;2.97;96.99;98497.94;348355;28;1156;-72
2021/12/08 00:13:17;;;;;;;315.38;75.03;;;;;;;2.97;97.12;98495.38;346171;28;2137;-72
2021/12/08 00:13:31;;;;;;;316.80;77.32;;;;;;;2.97;97.29;98495.38;344479;28;2091;-72
2021/12/08 00:13:42;;;;;;;316.30;77.88;;;;;;;2.93;96.77;98508.41;344754;28;1824;-72
2021/12/08 00:13:52;;;;;;;315.13;75.80;;;;;;;2.89;96.78;98510.22;345120;28;1354;-72
2021/12/08 00:14:04;;;;;;;316.00;76.57;;;;;;;2.89;96.99;98506.81;346310;28;2323;-72
2021/12/08 00:14:14;;;;;;;317.23;77.95;;;;;;;2.87;96.91;98508.56;349157;28;2148;-72
2021/12/08 00:14:25;;;;;;;316.77;77.88;;;;;;;2.86;96.99;98502.56;346407;28;2277;-72
2021/12/08 00:14:35;;;;;;;316.20;77.30;;;;;;;2.85;96.73;98506.03;345191;28;1161;-72
2021/12/08 00:14:45;;;;;;;316.42;77.50;;;;;;;2.84;97.16;98501.75;346302;28;2204;-72
2021/12/08 00:14:57;;;;;;;316.43;77.47;;;;;;;2.83;97.45;98506.97;346029;28;1652;-72
2021/12/08 00:15:08;;;;;;;316.33;76.50;;;;;;;2.83;97.10;98514.72;344675;28;1996;-72
2021/12/08 00:15:18;;;;;;;316.83;76.13;;;;;;;2.82;96.99;98511.28;345107;28;1825;-71
2021/12/08 00:15:40;;;;;;;316.77;75.72;;;;;;;2.83;97.32;98510.41;343776;28;2750;-71
2021/12/08 00:15:53;;;;;;;316.85;75.90;;;;;;;2.83;97.27;98507.81;342510;28;858;-71
2021/12/08 00:16:09;;;;;;;315.27;75.13;;;;;;;2.85;97.31;98516.38;342466;28;1938;-71
2021/12/08 00:16:19;;;;;;;314.88;74.65;;;;;;;2.87;96.92;98508.56;343728;28;1163;-71
2021/12/08 00:16:29;;;;;;;315.83;76.00;;;;;;;2.88;97.40;98513.72;344082;28;2132;-71
2021/12/08 00:16:40;;;;;;;316.55;76.55;;;;;;;2.88;97.13;98508.53;343728;28;1916;-71
2021/12/08 00:16:50;;;;;;;318.73;77.23;;;;;;;2.87;96.88;98514.59;345008;28;1942;-71
2021/12/08 00:17:01;;;;;;;318.75;77.22;;;;;;;2.83;96.62;98515.56;345010;28;2029;-71
2021/12/08 00:17:11;;;;;;;317.30;77.57;;;;;;;2.85;96.90;98513.78;346743;28;1803;-71
2021/12/08 00:17:22;;;;;;;316.92;77.85;;;;;;;2.86;97.30;98507.72;346574;28;882;-71
2021/12/08 00:17:32;;;;;;;317.67;78.63;;;;;;;2.83;96.67;98505.22;347115;28;1877;-72
2021/12/08 00:17:42;;;;;;;317.80;78.97;;;;;;;2.83;96.65;98509.56;344280;28;1479;-72
2021/12/08 00:17:53;;;;;;;316.63;77.70;;;;;;;2.81;97.19;98511.31;346238;28;2180;-72
2021/12/08 00:18:05;;;;;;;316.83;75.93;;;;;;;2.81;97.00;98514.75;345130;28;1223;-72
2021/12/08 00:18:17;;;;;;;316.38;74.43;;;;;;;2.82;96.95;98515.59;346062;28;1990;-72
2021/12/08 00:18:29;;;;;;;317.40;75.82;;;;;;;2.82;97.09;98511.28;347059;28;2110;-72
2021/12/08 00:18:46;;;;;;;317.38;77.03;;;;;;;2.84;96.99;98514.69;342501;28;2029;-72
2021/12/08 00:18:58;;;;;;;317.10;77.07;;;;;;;2.84;97.16;98506.94;343297;28;2055;-72
2021/12/08 00:19:09;;;;;;;316.98;76.30;;;;;;;2.82;97.52;98513.88;342365;28;1009;-72
2021/12/08 00:19:19;;;;;;;316.07;75.57;;;;;;;2.81;97.08;98517.34;345283;28;943;-72
2021/12/08 00:19:30;;;;;;;315.13;75.22;;;;;;;2.81;97.53;98512.19;346285;28;2041;-72
2021/12/08 00:19:40;;;;;;;315.40;76.72;;;;;;;2.82;97.35;98521.63;344821;28;2076;-72
2021/12/08 00:19:51;;;;;;;317.10;78.47;;;;;;;2.84;96.95;98519.84;345221;28;857;-72
2021/12/08 00:20:04;;;;;;;316.48;77.53;;;;;;;2.86;97.44;98523.22;345973;28;2068;-72
2021/12/08 00:20:14;;;;;;;316.15;76.57;;;;;;;2.85;97.26;98515.53;346178;28;1928;-72
2021/12/08 00:20:28;;;;;;;315.67;76.43;;;;;;;2.84;97.23;98513.84;344647;28;1966;-72
2021/12/08 00:20:39;;;;;;;315.77;75.38;;;;;;;2.82;97.35;98521.63;346390;28;1324;-72
2021/12/08 00:20:52;;;;;;;315.70;74.88;;;;;;;2.84;96.74;98519.00;347835;28;915;-72
2021/12/08 00:21:04;;;;;;;316.48;75.68;;;;;;;2.86;97.28;98520.66;346277;28;963;-72
2021/12/08 00:21:16;;;;;;;317.75;77.75;;;;;;;2.89;97.21;98517.13;345206;28;1492;-72
2021/12/08 00:21:28;;;;;;;317.08;76.35;;;;;;;2.90;97.18;98518.84;346376;28;1733;-72
2021/12/08 00:21:38;;;;;;;316.00;75.28;;;;;;;2.92;96.80;98512.72;343810;28;930;-72
2021/12/08 00:21:49;;;;;;;315.65;75.78;;;;;;;2.91;96.76;98511.03;346162;28;1395;-72
2021/12/08 00:22:00;;;;;;;315.67;75.83;;;;;;;2.89;97.52;98512.81;345140;28;2160;-72
2021/12/08 00:22:10;;;;;;;315.90;76.68;;;;;;;2.88;97.22;98513.72;345033;28;1674;-72
2021/12/08 00:22:20;;;;;;;315.98;76.22;;;;;;;2.88;97.21;98523.19;343909;28;980;-72
2021/12/08 00:22:31;;;;;;;316.63;77.50;;;;;;;2.88;96.78;98516.28;342437;28;1934;-72
2021/12/08 00:22:41;;;;;;;316.27;76.90;;;;;;;2.88;96.85;98513.72;344910;28;1849;-72
2021/12/08 00:22:52;;;;;;;316.67;78.10;;;;;;;2.90;96.92;98516.25;346534;28;857;-72
2021/12/08 00:23:03;;;;;;;316.70;78.70;;;;;;;2.90;97.12;98518.84;344976;28;2125;-72
2021/12/08 00:23:14;;;;;;;316.75;79.13;;;;;;;2.88;97.25;98521.47;345028;28;1789;-72
2021/12/08 00:23:24;;;;;;;316.25;78.47;;;;;;;2.89;97.24;98523.16;345203;28;1459;-72
2021/12/08 00:23:35;;;;;;;316.75;77.70;;;;;;;2.89;97.31;98511.97;344980;28;1476;-72
2021/12/08 00:23:45;;;;;;;316.97;77.53;;;;;;;2.92;97.06;98517.06;346348;28;1427;-72
2021/12/08 00:23:55;;;;;;;316.77;77.83;;;;;;;2.89;97.18;98519.72;345279;28;2168;-72
2021/12/08 00:24:07;;;;;;;316.73;77.90;;;;;;;2.93;97.09;98523.91;346410;28;1022;-72
2021/12/08 00:24:17;;;;;;;317.38;78.50;;;;;;;2.93;97.14;98519.59;346234;28;2234;-72
2021/12/08 00:24:28;;;;;;;317.27;77.90;;;;;;;2.96;97.36;98516.09;345062;28;1772;-72
2021/12/08 00:24:39;;;;;;;316.25;77.13;;;;;;;2.97;96.81;98523.78;345128;28;1231;-73
2021/12/08 00:24:49;;;;;;;314.85;75.15;;;;;;;2.94;97.17;98526.47;346246;28;2483;-72
2021/12/08 00:25:00;;;;;;;314.77;75.03;;;;;;;2.88;96.78;98516.28;347748;28;1219;-72
2021/12/08 00:25:10;;;;;;;314.97;75.73;;;;;;;2.88;96.83;98524.03;345062;28;2158;-72
2021/12/08 00:25:20;;;;;;;315.85;77.13;;;;;;;2.86;96.86;98518.06;345011;28;1919;-72
2021/12/08 00:25:31;;;;;;;316.10;77.47;;;;;;;2.86;96.77;98523.22;345231;28;1618;-72
2021/12/08 00:25:41;;;;;;;317.25;77.13;;;;;;;2.85;96.62;98521.53;343383;28;1672;-72
2021/12/08 00:25:52;;;;;;;317.27;76.93;;;;;;;2.85;96.91;98525.84;346500;28;1019;-72
2021/12/08 00:26:03;;;;;;;317.37;76.90;;;;;;;2.85;96.79;98524.13;344717;28;1907;-72
2021/12/08 00:26:14;;;;;;;316.88;77.50;;;;;;;2.87;97.33;98518.91;345721;28;2271;-72
2021/12/08 00:26:24;;;;;;;317.20;78.07;;;;;;;2.87;96.91;98514.59;342351;28;1318;-72
2021/12/08 00:26:35;;;;;;;318.08;79.82;;;;;;;2.86;97.16;98518.06;343481;28;2131;-71
2021/12/08 00:26:46;;;;;;;317.80;79.32;;;;;;;2.85;96.75;98521.53;342363;28;1900;-73
2021/12/08 00:26:56;;;;;;;316.80;78.50;;;;;;;2.86;97.06;98525.81;343658;28;1894;-73
2021/12/08 00:27:07;;;;;;;315.45;75.95;;;;;;;2.85;97.08;98520.69;342481;28;952;-72
2021/12/08 00:27:17;;;;;;;316.58;77.13;;;;;;;2.83;97.08;98523.31;344553;28;2262;-72
2021/12/08 00:27:28;;;;;;;315.87;75.90;;;;;;;2.83;97.34;98520.72;342389;28;1374;-72
2021/12/08 00:27:38;;;;;;;315.40;75.03;;;;;;;2.84;97.33;98514.69;344101;28;948;-72
2021/12/08 00:27:49;;;;;;;315.33;75.27;;;;;;;2.86;97.16;98515.47;345925;28;2033;-72
2021/12/08 00:27:59;;;;;;;316.27;76.13;;;;;;;2.83;97.30;98512.97;344105;28;1593;-72
2021/12/08 00:28:10;;;;;;;316.67;77.07;;;;;;;2.86;97.45;98512.91;343741;28;1278;-72
2021/12/08 00:28:20;;;;;;;316.77;77.13;;;;;;;2.86;97.41;98522.38;345040;28;2252;-72
2021/12/08 00:28:31;;;;;;;317.52;78.40;;;;;;;2.87;97.01;98518.91;344413;28;2065;-72
2021/12/08 00:28:41;;;;;;;317.93;78.47;;;;;;;2.84;97.14;98519.00;346403;28;2075;-72
2021/12/08 00:28:52;;;;;;;317.27;77.95;;;;;;;2.84;97.48;98519.84;345197;28;951;-72
2021/12/08 00:29:03;;;;;;;317.63;79.07;;;;;;;2.85;97.41;98515.53;344476;28;2318;-72
2021/12/08 00:29:14;;;;;;;317.20;79.47;;;;;;;2.85;97.26;98510.34;345053;28;2164;-72
2021/12/08 00:29:24;;;;;;;316.43;78.50;;;;;;;2.84;97.44;98519.00;343886;28;911;-72
2021/12/08 00:29:35;;;;;;;316.20;77.78;;;;;;;2.83;97.64;98523.31;344774;28;1769;-72
2021/12/08 00:29:45;;;;;;;316.80;77.70;;;;;;;2.82;97.69;98516.47;343409;28;2192;-72
2021/12/08 00:29:55;;;;;;;317.92;78.78;;;;;;;2.85;97.14;98523.28;343419;28;1300;-72
2021/12/08 00:30:06;;;;;;;317.30;78.10;;;;;;;2.84;97.35;98514.69;344985;28;2856;-72
2021/12/08 00:30:17;;;;;;;316.58;77.30;;;;;;;2.84;97.59;98512.09;344405;28;1905;-72
2021/12/08 00:30:27;;;;;;;315.70;76.57;;;;;;;2.83;97.25;98520.72;345534;28;2563;-72
2021/12/08 00:30:39;;;;;;;315.83;76.17;;;;;;;2.80;97.13;98515.66;345170;28;936;-72
2021/12/08 00:30:51;;;;;;;316.17;77.13;;;;;;;2.76;97.31;98516.63;346062;28;2198;-72
2021/12/08 00:31:03;;;;;;;315.77;76.88;;;;;;;2.75;97.23;98519.25;346073;28;1941;-72
2021/12/08 00:31:13;;;;;;;316.38;77.00;;;;;;;2.80;97.26;98517.38;345547;28;2107;-72
2021/12/08 00:31:24;;;;;;;316.85;76.80;;;;;;;2.79;97.20;98515.69;347984;28;848;-72
2021/12/08 00:31:34;;;;;;;317.57;76.40;;;;;;;2.80;97.33;98513.06;346251;28;2133;-72
2021/12/08 00:31:46;;;;;;;317.83;77.17;;;;;;;2.83;97.07;98518.16;346243;28;2212;-72
2021/12/08 00:31:58;;;;;;;317.85;77.25;;;;;;;2.84;97.59;98519.00;344185;28;1746;-72
2021/12/08 00:32:09;;;;;;;316.95;76.80;;;;;;;2.84;97.81;98525.00;345163;28;1035;-72
2021/12/08 00:32:25;;;;;;;316.58;76.78;;;;;;;2.86;97.25;98517.22;345092;28;2163;-72
2021/12/08 00:32:36;;;;;;;317.75;78.63;;;;;;;2.88;97.23;98518.03;342941;28;2621;-72
2021/12/08 00:32:47;;;;;;;317.50;78.10;;;;;;;2.90;97.25;98521.41;344440;28;2023;-72
2021/12/08 00:32:59;;;;;;;315.38;75.40;;;;;;;2.91;97.39;98526.53;343743;28;1805;-72
2021/12/08 00:33:09;;;;;;;315.48;75.65;;;;;;;2.94;97.33;98521.28;345152;28;960;-72
2021/12/08 00:33:20;;;;;;;316.20;76.90;;;;;;;2.94;97.37;98525.63;344924;28;2093;-72
2021/12/08 00:33:31;;;;;;;316.17;76.30;;;;;;;2.94;97.35;98526.47;345601;28;1950;-72
2021/12/08 00:33:41;;;;;;;315.70;75.47;;;;;;;2.93;97.30;98523.91;344844;28;1614;-72
2021/12/08 00:33:52;;;;;;;315.15;74.90;;;;;;;2.96;97.04;98523.84;343881;28;1026;-72
2021/12/08 00:34:02;;;;;;;315.57;75.77;;;;;;;2.95;97.58;98520.41;343664;28;1412;-72
2021/12/08 00:34:13;;;;;;;315.70;76.32;;;;;;;2.95;97.49;98520.41;343936;28;2149;-72
2021/12/08 00:34:24;;;;;;;315.88;76.55;;;;;;;2.94;97.50;98516.13;343845;28;1067;-72
2021/12/08 00:34:34;;;;;;;314.05;75.05;;;;;;;2.93;97.26;98519.59;341177;28;2044;-72
2021/12/08 00:34:45;;;;;;;313.90;74.20;;;;;;;2.93;97.24;98519.59;342445;28;2103;-72
2021/12/08 00:34:55;;;;;;;313.60;72.85;;;;;;;2.91;97.20;98521.38;345115;28;1344;-72
2021/12/08 00:35:06;;;;;;;315.47;74.07;;;;;;;2.89;96.85;98523.16;345656;28;1758;-72
2021/12/08 00:35:16;;;;;;;316.50;75.05;;;;;;;2.88;96.94;98521.47;344930;28;1388;-72
2021/12/08 00:35:27;;;;;;;315.75;75.15;;;;;;;2.88;96.87;98521.47;344630;28;1957;-72
2021/12/08 00:35:38;;;;;;;315.50;75.00;;;;;;;2.88;97.42;98521.47;344615;28;1424;-72
2021/12/08 00:35:50;;;;;;;315.75;76.68;;;;;;;2.86;96.97;98523.22;345858;28;1642;-72
2021/12/08 00:36:02;;;;;;;316.35;76.97;;;;;;;2.87;97.32;98532.69;345552;28;1679;-72
2021/12/08 00:36:14;;;;;;;315.30;75.03;;;;;;;2.90;96.82;98524.00;345020;28;1998;-72
2021/12/08 00:36:31;;;;;;;315.30;73.57;;;;;;;2.89;97.31;98528.31;345116;28;1637;-72
2021/12/08 00:36:44;;;;;;;315.80;74.95;;;;;;;2.93;97.10;98526.50;343863;28;1883;-72
2021/12/08 00:36:58;;;;;;;315.80;75.88;;;;;;;2.92;97.34;98528.22;343787;28;955;-72
2021/12/08 00:37:10;;;;;;;316.65;76.70;;;;;;;2.94;97.39;98529.03;345049;28;1404;-71
2021/12/08 00:37:22;;;;;;;317.38;77.45;;;;;;;2.95;97.24;98522.13;344695;28;2192;-71
2021/12/08 00:37:33;;;;;;;317.20;76.85;;;;;;;2.97;97.71;98528.09;345879;28;2118;-71
2021/12/08 00:37:43;;;;;;;316.17;76.32;;;;;;;2.98;96.97;98532.38;346318;28;1587;-71
2021/12/08 00:37:57;;;;;;;316.93;77.47;;;;;;;2.96;97.46;98535.00;345011;28;1938;-71
2021/12/08 00:38:07;;;;;;;316.65;76.82;;;;;;;2.96;96.67;98529.00;346469;28;1079;-73
2021/12/08 00:38:18;;;;;;;316.17;76.32;;;;;;;2.94;97.10;98518.72;344430;28;1963;-72
2021/12/08 00:38:28;;;;;;;316.93;77.10;;;;;;;2.93;96.92;98529.09;343968;28;2428;-72
2021/12/08 00:38:39;;;;;;;317.20;77.63;;;;;;;2.88;96.77;98520.59;342503;28;865;-72
2021/12/08 00:38:49;;;;;;;317.17;77.33;;;;;;;2.87;96.79;98527.50;343214;28;1988;-71
2021/12/08 00:38:59;;;;;;;315.90;75.65;;;;;;;2.87;97.04;98526.66;343874;28;1467;-71
2021/12/08 00:39:10;;;;;;;315.40;75.00;;;;;;;2.89;97.10;98527.47;347761;28;1222;-71
2021/12/08 00:39:21;;;;;;;314.38;73.85;;;;;;;2.89;97.07;98527.47;346279;28;1933;-72
2021/12/08 00:39:32;;;;;;;314.75;73.50;;;;;;;2.91;97.32;98530.84;344899;28;1788;-71
2021/12/08 00:39:43;;;;;;;315.42;74.60;;;;;;;2.87;96.84;98529.25;344677;28;1686;-71
2021/12/08 00:39:53;;;;;;;316.50;76.43;;;;;;;2.83;96.88;98528.47;345190;28;930;-71
2021/12/08 00:40:05;;;;;;;315.57;76.30;;;;;;;2.84;97.46;98534.50;343572;28;2107;-72
2021/12/08 00:40:17;;;;;;;315.67;76.35;;;;;;;2.85;97.27;98526.72;345383;28;2172;-71
2021/12/08 00:40:28;;;;;;;315.30;75.32;;;;;;;2.86;96.79;98530.13;343987;28;4156;-71
2021/12/08 00:40:38;;;;;;;315.27;75.35;;;;;;;2.86;97.53;98533.56;345130;28;1346;-71
2021/12/08 00:40:49;;;;;;;315.27;75.27;;;;;;;2.85;97.42;98528.44;345517;28;2334;-71
2021/12/08 00:40:59;;;;;;;315.95;76.30;;;;;;;2.84;97.12;98530.19;345633;28;1786;-71
2021/12/08 00:41:11;;;;;;;316.93;77.37;;;;;;;2.82;96.81;98521.63;345120;28;1398;-71
2021/12/08 00:41:21;;;;;;;316.70;77.38;;;;;;;2.84;97.06;98525.00;343744;28;2156;-71
2021/12/08 00:41:31;;;;;;;316.73;77.82;;;;;;;2.83;97.39;98525.91;342451;28;1993;-72
2021/12/08 00:41:42;;;;;;;315.90;76.90;;;;;;;2.83;97.35;98520.72;343510;28;2033;-72
2021/12/08 00:41:52;;;;;;;315.42;76.43;;;;;;;2.83;97.44;98527.63;346515;28;913;-72
2021/12/08 00:42:03;;;;;;;315.47;76.30;;;;;;;2.81;97.17;98527.69;345776;28;2181;-72
2021/12/08 00:42:13;;;;;;;315.40;76.10;;;;;;;2.80;97.49;98528.56;344952;28;2133;-72
2021/12/08 00:42:24;;;;;;;315.47;75.87;;;;;;;2.81;97.18;98530.25;345163;28;1329;-72
2021/12/08 00:42:36;;;;;;;315.75;76.25;;;;;;;2.84;97.71;98531.91;345230;28;1925;-72
2021/12/08 00:42:46;;;;;;;315.60;76.28;;;;;;;2.84;97.73;98525.00;342377;28;2316;-72
2021/12/08 00:42:57;;;;;;;316.17;77.17;;;;;;;2.85;97.70;98526.72;343898;28;845;-72
2021/12/08 00:43:07;;;;;;;315.52;76.97;;;;;;;2.85;97.42;98531.88;346475;28;1729;-72
2021/12/08 00:43:18;;;;;;;316.30;77.53;;;;;;;2.86;97.56;98527.56;345060;28;1933;-72
2021/12/08 00:43:28;;;;;;;316.08;77.22;;;;;;;2.84;97.43;98530.19;343886;28;1840;-71
2021/12/08 00:43:40;;;;;;;317.10;77.87;;;;;;;2.86;97.41;98528.41;342340;28;1178;-72
2021/12/08 00:43:50;;;;;;;316.77;77.82;;;;;;;2.88;97.59;98526.63;344745;28;2166;-72
2021/12/08 00:44:01;;;;;;;317.10;78.07;;;;;;;2.92;97.66;98536.00;346263;28;2214;-72
2021/12/08 00:44:11;;;;;;;316.83;77.70;;;;;;;2.92;97.27;98535.13;346455;28;1274;-72
2021/12/08 00:44:21;;;;;;;317.55;79.00;;;;;;;2.93;97.38;98539.41;346248;28;1334;-72
2021/12/08 00:44:32;;;;;;;318.23;79.37;;;;;;;2.88;97.63;98536.97;343621;28;1587;-72
2021/12/08 00:44:42;;;;;;;317.63;78.75;;;;;;;2.88;97.09;98530.94;345173;28;869;-72
2021/12/08 00:44:52;;;;;;;318.17;77.97;;;;;;;2.88;97.33;98525.78;344968;28;1312;-72
2021/12/08 00:45:06;;;;;;;317.85;77.65;;;;;;;2.85;97.36;98531.88;343557;28;2040;-72
2021/12/08 00:45:17;;;;;;;317.75;76.72;;;;;;;2.83;97.09;98533.66;343390;28;2085;-72
2021/12/08 00:45:29;;;;;;;316.88;76.30;;;;;;;2.84;97.70;98535.34;344204;28;2000;-72
2021/12/08 00:45:39;;;;;;;315.83;76.05;;;;;;;2.87;97.84;98530.09;343389;28;1314;-72
2021/12/08 00:45:51;;;;;;;315.35;76.53;;;;;;;2.85;97.45;98531.88;343197;28;1823;-72
2021/12/08 00:46:01;;;;;;;315.35;76.43;;;;;;;2.84;97.22;98527.59;343215;28;1665;-72
2021/12/08 00:46:12;;;;;;;314.83;75.55;;;;;;;2.86;96.95;98535.31;343825;28;936;-72
2021/12/08 00:46:22;;;;;;;314.50;74.90;;;;;;;2.88;97.17;98533.53;343813;28;2168;-72
2021/12/08 00:46:32;;;;;;;314.45;74.40;;;;;;;2.89;97.57;98536.06;343564;28;2184;-72
2021/12/08 00:46:44;;;;;;;315.70;75.53;;;;;;;2.91;97.27;98538.63;345137;28;1351;-72
2021/12/08 00:46:54;;;;;;;316.55;76.20;;;;;;;2.90;97.03;98535.19;345060;28;1834;-72
2021/12/08 00:47:04;;;;;;;316.58;77.05;;;;;;;2.88;96.71;98538.69;344194;28;2284;-72
2021/12/08 00:47:15;;;;;;;315.90;76.20;;;;;;;2.86;97.11;98536.16;343759;28;2123;-72
2021/12/08 00:47:26;;;;;;;316.08;77.13;;;;;;;2.83;97.08;98531.06;346489;28;1318;-72
2021/12/08 00:47:37;;;;;;;316.95;77.38;;;;;;;2.87;97.37;98537.84;346390;28;2152;-72
2021/12/08 00:47:48;;;;;;;317.08;77.22;;;;;;;2.86;97.28;98538.72;345834;28;2074;-72
2021/12/08 00:47:58;;;;;;;316.63;77.55;;;;;;;2.88;97.45;98543.88;346393;28;2005;-71
2021/12/08 00:48:09;;;;;;;316.45;77.65;;;;;;;2.90;97.38;98540.34;343681;28;1300;-71
2021/12/08 00:48:19;;;;;;;315.40;76.60;;;;;;;2.86;96.88;98530.97;343592;28;1807;-71
2021/12/08 00:48:30;;;;;;;315.63;75.30;;;;;;;2.86;96.99;98530.97;343798;28;2197;-71
2021/12/08 00:48:46;;;;;;;315.87;75.43;;;;;;;2.86;97.08;98536.16;343783;28;1982;-71
2021/12/08 00:48:56;;;;;;;316.77;77.30;;;;;;;2.90;97.22;98540.34;342439;28;923;-71
2021/12/08 00:49:07;;;;;;;317.70;78.80;;;;;;;2.89;97.19;98535.22;343447;28;2062;-71
2021/12/08 00:49:18;;;;;;;316.98;78.32;;;;;;;2.90;96.98;98530.00;342912;28;1781;-71
2021/12/08 00:49:28;;;;;;;315.60;76.43;;;;;;;2.89;97.25;98538.66;343700;28;2044;-71
2021/12/08 00:49:39;;;;;;;315.33;75.30;;;;;;;2.89;97.28;98537.81;341145;29;941;-71
2021/12/08 00:49:50;;;;;;;314.98;74.40;;;;;;;2.90;97.05;98539.50;343332;28;2088;-71
2021/12/08 00:50:01;;;;;;;314.52;74.63;;;;;;;2.89;96.96;98530.91;342353;28;1650;-71
2021/12/08 00:50:12;;;;;;;314.52;74.28;;;;;;;2.88;97.03;98544.72;343718;28;1602;-71
2021/12/08 00:50:25;;;;;;;315.42;75.68;;;;;;;2.88;96.85;98536.97;346318;28;1920;-71
2021/12/08 00:50:36;;;;;;;316.83;77.22;;;;;;;2.85;97.18;98538.78;343743;28;1868;-71
2021/12/08 00:50:47;;;;;;;316.40;77.47;;;;;;;2.85;97.05;98538.78;344123;28;1943;-71
2021/12/08 00:50:58;;;;;;;315.80;75.93;;;;;;;2.84;97.40;98540.50;343827;28;1102;-71
2021/12/08 00:51:08;;;;;;;315.27;75.80;;;;;;;2.84;97.47;98531.91;344919;28;1291;-71
2021/12/08 00:51:18;;;;;;;316.30;76.37;;;;;;;2.82;97.23;98536.28;345029;28;1729;-71
2021/12/08 00:51:29;;;;;;;318.35;77.97;;;;;;;2.83;97.43;98536.22;344739;28;1845;-71
2021/12/08 00:51:39;;;;;;;318.83;77.93;;;;;;;2.84;97.74;98535.34;343640;28;1290;-71
2021/12/08 00:51:50;;;;;;;318.38;78.15;;;;;;;2.84;97.04;98535.34;344262;28;2095;-71
2021/12/08 00:52:00;;;;;;;316.65;77.80;;;;;;;2.88;97.51;98531.78;343790;28;1068;-71
2021/12/08 00:52:11;;;;;;;317.50;78.23;;;;;;;2.87;97.54;98537.84;346412;28;1719;-71
2021/12/08 00:52:24;;;;;;;317.25;77.95;;;;;;;2.90;97.02;98545.50;344910;28;2043;-71
2021/12/08 00:52:35;;;;;;;316.20;76.78;;;;;;;2.92;97.42;98545.47;345694;28;1934;-71
2021/12/08 00:52:45;;;;;;;315.63;76.30;;;;;;;2.94;96.96;98541.97;344349;28;860;-71
2021/12/08 00:52:57;;;;;;;315.67;75.90;;;;;;;2.96;97.11;98541.91;346567;28;790;-71
2021/12/08 00:53:08;;;;;;;316.55;76.20;;;;;;;2.96;97.47;98541.91;346348;28;1993;-71
2021/12/08 00:53:18;;;;;;;316.55;76.75;;;;;;;2.97;97.30;98546.19;344991;28;2021;-71
2021/12/08 00:53:28;;;;;;;316.83;77.40;;;;;;;2.96;96.84;98544.50;346316;28;1762;-72
2021/12/08 00:53:39;;;;;;;316.67;77.65;;;;;;;2.92;97.23;98538.56;343640;28;1862;-72
2021/12/08 00:53:49;;;;;;;316.60;77.63;;;;;;;2.90;97.16;98537.75;345216;28;1809;-72
2021/12/08 00:54:00;;;;;;;316.23;77.30;;;;;;;2.89;97.18;98541.25;346009;28;1640;-72
2021/12/08 00:54:10;;;;;;;316.25;77.35;;;;;;;2.87;97.04;98537.84;344840;28;1051;-72
2021/12/08 00:54:21;;;;;;;315.90;76.77;;;;;;;2.88;97.15;98542.13;343539;28;2230;-72
2021/12/08 00:54:31;;;;;;;315.30;75.82;;;;;;;2.91;97.35;98543.78;343699;28;1906;-72
2021/12/08 00:54:42;;;;;;;315.67;76.17;;;;;;;2.90;97.03;98542.09;343925;28;881;-72
2021/12/08 00:54:52;;;;;;;315.75;75.72;;;;;;;2.90;97.15;98542.94;345249;28;1887;-72
2021/12/08 00:55:07;;;;;;;316.03;76.17;;;;;;;2.91;97.43;98531.72;345466;28;1875;-72
2021/12/08 00:55:18;;;;;;;315.13;75.97;;;;;;;2.87;96.50;98534.41;343751;28;1773;-72
2021/12/08 00:55:28;;;;;;;315.40;76.45;;;;;;;2.83;97.03;98536.22;344906;28;2484;-72